sensor_id;sensor_type;location;lat;lon;timestamp;pressure;altitude;pressure_sealevel;temperature;humidity
35848;BME280;22332;51.954;20.118;2022-12-18T00:01:21;101572.33;;;-3.41;86.66
35848;BME280;22332;51.954;20.118;2022-12-18T00:04:28;101572.92;;;-3.44;86.06
35848;BME280;22332;51.954;20.118;2022-12-18T00:07:33;101577.84;;;-3.46;86.55
35848;BME280;22332;51.954;20.118;2022-12-18T00:10:40;101580.82;;;-3.57;86.57
35848;BME280;22332;51.954;20.118;2022-12-18T00:13:46;101584.13;;;-3.65;86.71
35848;BME280;22332;51.954;20.118;2022-12-18T00:16:51;101584.71;;;-3.68;87.14
35848;BME280;22332;51.954;20.118;2022-12-18T00:19:57;101587.92;;;-3.64;87.07
35848;BME280;22332;51.954;20.118;2022-12-18T00:23:02;101586.81;;;-3.60;86.50
35848;BME280;22332;51.954;20.118;2022-12-18T00:26:12;101583.90;;;-3.53;86.49
35848;BME280;22332;51.954;20.118;2022-12-18T00:29:17;101587.10;;;-3.49;86.44
35848;BME280;22332;51.954;20.118;2022-12-18T00:32:23;101592.09;;;-3.54;86.15
35848;BME280;22332;51.954;20.118;2022-12-18T00:35:28;101598.08;;;-3.58;86.42
35848;BME280;22332;51.954;20.118;2022-12-18T00:38:33;101601.16;;;-3.56;86.40
35848;BME280;22332;51.954;20.118;2022-12-18T00:41:39;101603.81;;;-3.49;86.30
35848;BME280;22332;51.954;20.118;2022-12-18T00:45:03;101613.89;;;-3.48;86.25
35848;BME280;22332;51.954;20.118;2022-12-18T00:48:09;101620.08;;;-3.53;86.20
35848;BME280;22332;51.954;20.118;2022-12-18T00:51:14;101627.52;;;-3.61;86.27
35848;BME280;22332;51.954;20.118;2022-12-18T00:54:20;101632.45;;;-3.64;86.28
35848;BME280;22332;51.954;20.118;2022-12-18T00:57:25;101641.38;;;-3.67;86.37
35848;BME280;22332;51.954;20.118;2022-12-18T01:00:31;101649.00;;;-3.75;86.55
35848;BME280;22332;51.954;20.118;2022-12-18T01:03:36;101654.48;;;-3.81;86.48
35848;BME280;22332;51.954;20.118;2022-12-18T01:06:42;101658.59;;;-3.86;86.70
35848;BME280;22332;51.954;20.118;2022-12-18T01:09:48;101659.91;;;-3.92;86.83
35848;BME280;22332;51.954;20.118;2022-12-18T01:12:53;101658.50;;;-3.91;87.00
35848;BME280;22332;51.954;20.118;2022-12-18T01:15:58;101662.39;;;-3.96;87.10
35848;BME280;22332;51.954;20.118;2022-12-18T01:19:04;101665.31;;;-4.04;87.15
35848;BME280;22332;51.954;20.118;2022-12-18T01:22:09;101671.28;;;-4.07;87.23
35848;BME280;22332;51.954;20.118;2022-12-18T01:25:16;101675.25;;;-4.06;87.42
35848;BME280;22332;51.954;20.118;2022-12-18T01:28:21;101677.82;;;-4.04;87.21
35848;BME280;22332;51.954;20.118;2022-12-18T01:31:28;101677.47;;;-3.93;87.01
35848;BME280;22332;51.954;20.118;2022-12-18T01:34:34;101678.88;;;-3.83;87.00
35848;BME280;22332;51.954;20.118;2022-12-18T01:37:41;101679.15;;;-3.80;86.79
35848;BME280;22332;51.954;20.118;2022-12-18T01:40:47;101678.52;;;-3.73;86.66
35848;BME280;22332;51.954;20.118;2022-12-18T01:43:54;101680.31;;;-3.75;86.67
35848;BME280;22332;51.954;20.118;2022-12-18T01:47:01;101683.48;;;-3.77;86.56
35848;BME280;22332;51.954;20.118;2022-12-18T01:50:10;101694.18;;;-3.84;86.72
35848;BME280;22332;51.954;20.118;2022-12-18T01:53:18;101693.39;;;-3.88;86.95
35848;BME280;22332;51.954;20.118;2022-12-18T01:56:25;101694.18;;;-3.84;86.72
35848;BME280;22332;51.954;20.118;2022-12-18T01:59:32;101705.02;;;-3.76;87.10
35848;BME280;22332;51.954;20.118;2022-12-18T02:02:39;101709.15;;;-3.74;86.76
35848;BME280;22332;51.954;20.118;2022-12-18T02:05:49;101711.32;;;-3.79;86.61
35848;BME280;22332;51.954;20.118;2022-12-18T02:09:09;101715.08;;;-3.86;87.05
35848;BME280;22332;51.954;20.118;2022-12-18T02:12:20;101723.85;;;-3.90;86.90
35848;BME280;22332;51.954;20.118;2022-12-18T02:15:32;101729.27;;;-3.92;86.88
35848;BME280;22332;51.954;20.118;2022-12-18T02:18:44;101732.34;;;-4.00;87.23
35848;BME280;22332;51.954;20.118;2022-12-18T02:21:58;101741.60;;;-4.03;87.03
35848;BME280;22332;51.954;20.118;2022-12-18T02:25:16;101744.86;;;-4.01;87.20
35848;BME280;22332;51.954;20.118;2022-12-18T02:28:30;101748.92;;;-3.93;87.17
35848;BME280;22332;51.954;20.118;2022-12-18T02:31:42;101752.20;;;-3.91;86.66
35848;BME280;22332;51.954;20.118;2022-12-18T02:34:50;101758.10;;;-3.90;86.97
35848;BME280;22332;51.954;20.118;2022-12-18T02:37:57;101758.78;;;-3.90;86.63
35848;BME280;22332;51.954;20.118;2022-12-18T02:41:04;101759.89;;;-3.94;86.95
35848;BME280;22332;51.954;20.118;2022-12-18T02:44:13;101763.95;;;-3.98;86.87
35848;BME280;22332;51.954;20.118;2022-12-18T02:47:21;101767.72;;;-3.95;86.94
35848;BME280;22332;51.954;20.118;2022-12-18T02:50:34;101779.30;;;-3.90;86.64
35848;BME280;22332;51.954;20.118;2022-12-18T02:53:43;101780.45;;;-3.86;86.73
35848;BME280;22332;51.954;20.118;2022-12-18T02:56:54;101781.30;;;-3.84;86.83
35848;BME280;22332;51.954;20.118;2022-12-18T03:00:04;101781.69;;;-3.87;86.70
35848;BME280;22332;51.954;20.118;2022-12-18T03:03:16;101785.08;;;-3.92;86.70
35848;BME280;22332;51.954;20.118;2022-12-18T03:06:28;101790.38;;;-3.99;87.06
35848;BME280;22332;51.954;20.118;2022-12-18T03:09:36;101796.01;;;-4.04;87.00
35848;BME280;22332;51.954;20.118;2022-12-18T03:12:47;101801.56;;;-4.03;87.10
35848;BME280;22332;51.954;20.118;2022-12-18T03:15:57;101802.36;;;-3.99;87.04
35848;BME280;22332;51.954;20.118;2022-12-18T03:19:08;101801.95;;;-3.94;86.95
35848;BME280;22332;51.954;20.118;2022-12-18T03:22:19;101802.37;;;-3.87;86.83
35848;BME280;22332;51.954;20.118;2022-12-18T03:25:29;101802.94;;;-3.90;86.72
35848;BME280;22332;51.954;20.118;2022-12-18T03:28:38;101809.58;;;-3.92;86.87
35848;BME280;22332;51.954;20.118;2022-12-18T03:31:51;101811.04;;;-3.98;86.85
35848;BME280;22332;51.954;20.118;2022-12-18T03:35:01;101810.52;;;-3.97;86.81
35848;BME280;22332;51.954;20.118;2022-12-18T03:38:11;101814.48;;;-3.96;86.91
35848;BME280;22332;51.954;20.118;2022-12-18T03:41:25;101819.85;;;-3.93;86.80
35848;BME280;22332;51.954;20.118;2022-12-18T03:45:00;101826.01;;;-3.86;86.74
35848;BME280;22332;51.954;20.118;2022-12-18T03:48:13;101837.04;;;-3.80;86.60
35848;BME280;22332;51.954;20.118;2022-12-18T03:51:26;101839.59;;;-3.76;86.63
35848;BME280;22332;51.954;20.118;2022-12-18T03:54:34;101842.37;;;-3.76;86.26
35848;BME280;22332;51.954;20.118;2022-12-18T03:57:48;101838.30;;;-3.83;86.24
35848;BME280;22332;51.954;20.118;2022-12-18T04:00:56;101848.91;;;-3.83;86.40
35848;BME280;22332;51.954;20.118;2022-12-18T04:04:05;101859.80;;;-3.79;86.45
35848;BME280;22332;51.954;20.118;2022-12-18T04:07:14;101867.23;;;-3.75;86.41
35848;BME280;22332;51.954;20.118;2022-12-18T04:10:22;101874.30;;;-3.71;86.30
35848;BME280;22332;51.954;20.118;2022-12-18T04:13:31;101876.83;;;-3.66;86.39
35848;BME280;22332;51.954;20.118;2022-12-18T04:16:39;101886.15;;;-3.61;86.24
35848;BME280;22332;51.954;20.118;2022-12-18T04:19:46;101893.24;;;-3.59;86.11
35848;BME280;22332;51.954;20.118;2022-12-18T04:22:51;101896.70;;;-3.58;86.00
35848;BME280;22332;51.954;20.118;2022-12-18T04:25:57;101894.51;;;-3.61;86.13
35848;BME280;22332;51.954;20.118;2022-12-18T04:29:23;101896.48;;;-3.66;86.26
35848;BME280;22332;51.954;20.118;2022-12-18T04:32:28;101898.13;;;-3.71;86.29
35848;BME280;22332;51.954;20.118;2022-12-18T04:35:34;101903.95;;;-3.78;86.04
35848;BME280;22332;51.954;20.118;2022-12-18T04:38:39;101906.98;;;-3.82;86.19
35848;BME280;22332;51.954;20.118;2022-12-18T04:41:48;101921.17;;;-3.79;86.36
35848;BME280;22332;51.954;20.118;2022-12-18T04:44:53;101925.84;;;-3.75;86.40
35848;BME280;22332;51.954;20.118;2022-12-18T04:47:59;101927.84;;;-3.70;86.19
35848;BME280;22332;51.954;20.118;2022-12-18T04:51:06;101927.48;;;-3.69;86.00
35848;BME280;22332;51.954;20.118;2022-12-18T04:54:11;101929.19;;;-3.67;86.33
35848;BME280;22332;51.954;20.118;2022-12-18T04:57:17;101931.95;;;-3.65;85.86
35848;BME280;22332;51.954;20.118;2022-12-18T05:00:23;101926.62;;;-3.70;85.94
35848;BME280;22332;51.954;20.118;2022-12-18T05:03:30;101928.64;;;-3.78;85.88
35848;BME280;22332;51.954;20.118;2022-12-18T05:06:35;101929.09;;;-3.85;86.03
35848;BME280;22332;51.954;20.118;2022-12-18T05:09:41;101929.62;;;-3.86;86.16
35848;BME280;22332;51.954;20.118;2022-12-18T05:12:47;101932.73;;;-3.84;86.00
35848;BME280;22332;51.954;20.118;2022-12-18T05:16:06;101934.38;;;-3.77;85.91
35848;BME280;22332;51.954;20.118;2022-12-18T05:19:11;101938.99;;;-3.71;86.00
35848;BME280;22332;51.954;20.118;2022-12-18T05:22:17;101938.59;;;-3.67;85.83
35848;BME280;22332;51.954;20.118;2022-12-18T05:25:22;101945.02;;;-3.67;85.65
35848;BME280;22332;51.954;20.118;2022-12-18T05:28:31;101946.28;;;-3.69;86.03
35848;BME280;22332;51.954;20.118;2022-12-18T05:31:36;101953.27;;;-3.73;85.60
35848;BME280;22332;51.954;20.118;2022-12-18T05:34:42;101956.19;;;-3.83;85.90
35848;BME280;22332;51.954;20.118;2022-12-18T05:37:47;101957.54;;;-3.80;85.95
35848;BME280;22332;51.954;20.118;2022-12-18T05:40:53;101966.48;;;-3.72;85.85
35848;BME280;22332;51.954;20.118;2022-12-18T05:43:59;101965.02;;;-3.67;86.07
35848;BME280;22332;51.954;20.118;2022-12-18T05:47:04;101964.12;;;-3.64;85.59
35848;BME280;22332;51.954;20.118;2022-12-18T05:50:10;101966.57;;;-3.66;85.58
35848;BME280;22332;51.954;20.118;2022-12-18T05:53:17;101963.93;;;-3.64;85.57
35848;BME280;22332;51.954;20.118;2022-12-18T05:56:23;101969.02;;;-3.67;85.22
35848;BME280;22332;51.954;20.118;2022-12-18T05:59:28;101976.70;;;-3.69;85.56
35848;BME280;22332;51.954;20.118;2022-12-18T06:02:34;101984.27;;;-3.77;85.34
35848;BME280;22332;51.954;20.118;2022-12-18T06:05:41;101984.55;;;-3.85;85.72
35848;BME280;22332;51.954;20.118;2022-12-18T06:08:47;101988.61;;;-3.89;85.52
35848;BME280;22332;51.954;20.118;2022-12-18T06:11:53;101996.19;;;-3.84;85.78
35848;BME280;22332;51.954;20.118;2022-12-18T06:14:59;102002.75;;;-3.81;85.16
35848;BME280;22332;51.954;20.118;2022-12-18T06:18:04;101999.98;;;-3.82;85.50
35848;BME280;22332;51.954;20.118;2022-12-18T06:21:10;102006.21;;;-3.80;85.56
35848;BME280;22332;51.954;20.118;2022-12-18T06:24:16;102012.31;;;-3.81;85.54
35848;BME280;22332;51.954;20.118;2022-12-18T06:27:21;102017.64;;;-3.75;85.88
35848;BME280;22332;51.954;20.118;2022-12-18T06:30:26;102021.83;;;-3.75;85.46
35848;BME280;22332;51.954;20.118;2022-12-18T06:33:32;102027.25;;;-3.78;85.44
35848;BME280;22332;51.954;20.118;2022-12-18T06:36:38;102036.36;;;-3.85;85.35
35848;BME280;22332;51.954;20.118;2022-12-18T06:39:44;102042.30;;;-3.88;85.67
35848;BME280;22332;51.954;20.118;2022-12-18T06:42:49;102046.42;;;-3.83;85.89
35848;BME280;22332;51.954;20.118;2022-12-18T06:46:02;102048.69;;;-3.68;85.64
35848;BME280;22332;51.954;20.118;2022-12-18T06:49:08;102048.77;;;-3.60;85.59
35848;BME280;22332;51.954;20.118;2022-12-18T06:52:13;102053.55;;;-3.53;85.02
35848;BME280;22332;51.954;20.118;2022-12-18T06:55:19;102052.15;;;-3.51;84.97
35848;BME280;22332;51.954;20.118;2022-12-18T06:58:24;102059.14;;;-3.55;84.78
35848;BME280;22332;51.954;20.118;2022-12-18T07:01:30;102067.76;;;-3.62;84.42
35848;BME280;22332;51.954;20.118;2022-12-18T07:04:35;102079.11;;;-3.67;84.96
35848;BME280;22332;51.954;20.118;2022-12-18T07:07:41;102080.84;;;-3.66;85.18
35848;BME280;22332;51.954;20.118;2022-12-18T07:10:46;102085.81;;;-3.59;85.17
35848;BME280;22332;51.954;20.118;2022-12-18T07:13:53;102095.08;;;-3.63;85.27
35848;BME280;22332;51.954;20.118;2022-12-18T07:16:59;102100.09;;;-3.60;85.40
35848;BME280;22332;51.954;20.118;2022-12-18T07:20:05;102106.83;;;-3.57;84.92
35848;BME280;22332;51.954;20.118;2022-12-18T07:23:11;102108.31;;;-3.49;85.03
35848;BME280;22332;51.954;20.118;2022-12-18T07:26:18;102120.17;;;-3.38;85.47
35848;BME280;22332;51.954;20.118;2022-12-18T07:29:24;102121.40;;;-3.23;85.40
35848;BME280;22332;51.954;20.118;2022-12-18T07:32:31;102119.41;;;-3.03;85.67
35848;BME280;22332;51.954;20.118;2022-12-18T07:35:36;102124.77;;;-2.88;85.10
35848;BME280;22332;51.954;20.118;2022-12-18T07:38:42;102125.64;;;-2.88;84.88
35848;BME280;22332;51.954;20.118;2022-12-18T07:41:48;102125.55;;;-2.81;85.35
35848;BME280;22332;51.954;20.118;2022-12-18T07:45:13;102128.15;;;-2.68;84.82
35848;BME280;22332;51.954;20.118;2022-12-18T07:48:18;102129.98;;;-2.63;84.60
35848;BME280;22332;51.954;20.118;2022-12-18T07:51:24;102138.69;;;-2.62;84.31
35848;BME280;22332;51.954;20.118;2022-12-18T07:54:29;102140.21;;;-2.71;84.63
35848;BME280;22332;51.954;20.118;2022-12-18T07:57:35;102143.95;;;-2.64;84.72
35848;BME280;22332;51.954;20.118;2022-12-18T08:00:40;102152.45;;;-2.50;84.79
35848;BME280;22332;51.954;20.118;2022-12-18T08:03:45;102151.27;;;-2.41;83.76
35848;BME280;22332;51.954;20.118;2022-12-18T08:06:51;102151.14;;;-2.32;84.08
35848;BME280;22332;51.954;20.118;2022-12-18T08:09:56;102152.60;;;-2.25;84.30
35848;BME280;22332;51.954;20.118;2022-12-18T08:13:01;102160.63;;;-2.15;84.06
35848;BME280;22332;51.954;20.118;2022-12-18T08:16:08;102162.70;;;-2.14;83.86
35848;BME280;22332;51.954;20.118;2022-12-18T08:19:14;102167.80;;;-2.06;84.18
35848;BME280;22332;51.954;20.118;2022-12-18T08:22:19;102171.09;;;-2.03;83.80
35848;BME280;22332;51.954;20.118;2022-12-18T08:25:24;102173.80;;;-2.10;83.37
35848;BME280;22332;51.954;20.118;2022-12-18T08:28:30;102174.13;;;-2.08;84.22
35848;BME280;22332;51.954;20.118;2022-12-18T08:31:35;102177.67;;;-2.01;83.93
35848;BME280;22332;51.954;20.118;2022-12-18T08:34:41;102182.52;;;-1.99;83.36
35848;BME280;22332;51.954;20.118;2022-12-18T08:37:46;102182.38;;;-2.01;83.39
35848;BME280;22332;51.954;20.118;2022-12-18T08:40:59;102190.00;;;-1.98;83.68
35848;BME280;22332;51.954;20.118;2022-12-18T08:44:06;102199.27;;;-1.99;82.42
35848;BME280;22332;51.954;20.118;2022-12-18T08:47:29;102207.23;;;-2.07;83.38
35848;BME280;22332;51.954;20.118;2022-12-18T08:50:35;102201.34;;;-1.98;83.37
35848;BME280;22332;51.954;20.118;2022-12-18T08:53:41;102196.85;;;-1.90;83.15
35848;BME280;22332;51.954;20.118;2022-12-18T08:56:47;102202.21;;;-1.77;83.27
35848;BME280;22332;51.954;20.118;2022-12-18T08:59:53;102209.39;;;-1.58;83.42
35848;BME280;22332;51.954;20.118;2022-12-18T09:03:01;102205.97;;;-1.42;82.77
35848;BME280;22332;51.954;20.118;2022-12-18T09:06:09;102205.10;;;-1.34;82.15
35848;BME280;22332;51.954;20.118;2022-12-18T09:09:18;102210.72;;;-1.44;80.42
35848;BME280;22332;51.954;20.118;2022-12-18T09:12:23;102208.70;;;-1.59;80.71
35848;BME280;22332;51.954;20.118;2022-12-18T09:15:29;102211.43;;;-1.66;81.08
35848;BME280;22332;51.954;20.118;2022-12-18T09:18:34;102215.48;;;-1.77;80.25
35848;BME280;22332;51.954;20.118;2022-12-18T09:21:40;102221.36;;;-1.96;80.57
35848;BME280;22332;51.954;20.118;2022-12-18T09:24:45;102221.45;;;-2.01;80.51
35848;BME280;22332;51.954;20.118;2022-12-18T09:27:50;102231.21;;;-2.02;81.37
35848;BME280;22332;51.954;20.118;2022-12-18T09:30:56;102231.65;;;-2.07;81.81
35848;BME280;22332;51.954;20.118;2022-12-18T09:34:01;102231.27;;;-2.04;82.04
35848;BME280;22332;51.954;20.118;2022-12-18T09:37:14;102242.34;;;-1.88;82.03
35848;BME280;22332;51.954;20.118;2022-12-18T09:40:22;102242.85;;;-1.76;82.17
35848;BME280;22332;51.954;20.118;2022-12-18T09:43:33;102239.55;;;-1.66;81.84
35848;BME280;22332;51.954;20.118;2022-12-18T09:46:46;102240.62;;;-1.57;81.90
35848;BME280;22332;51.954;20.118;2022-12-18T09:49:56;102241.89;;;-1.40;82.16
35848;BME280;22332;51.954;20.118;2022-12-18T09:53:07;102240.40;;;-1.25;81.78
35848;BME280;22332;51.954;20.118;2022-12-18T09:56:20;102239.23;;;-1.09;81.93
35848;BME280;22332;51.954;20.118;2022-12-18T09:59:29;102236.30;;;-1.03;80.89
35848;BME280;22332;51.954;20.118;2022-12-18T10:02:36;102241.35;;;-1.20;79.61
35848;BME280;22332;51.954;20.118;2022-12-18T10:05:47;102243.44;;;-1.39;79.67
35848;BME280;22332;51.954;20.118;2022-12-18T10:08:59;102243.17;;;-1.53;79.78
35848;BME280;22332;51.954;20.118;2022-12-18T10:12:12;102243.36;;;-1.65;79.88
35848;BME280;22332;51.954;20.118;2022-12-18T10:15:26;102241.60;;;-1.64;80.77
35848;BME280;22332;51.954;20.118;2022-12-18T10:18:50;102236.44;;;-1.57;80.93
35848;BME280;22332;51.954;20.118;2022-12-18T10:22:08;102239.68;;;-1.44;81.20
35848;BME280;22332;51.954;20.118;2022-12-18T10:25:22;102242.51;;;-1.35;81.03
35848;BME280;22332;51.954;20.118;2022-12-18T10:28:31;102241.06;;;-1.23;81.17
35848;BME280;22332;51.954;20.118;2022-12-18T10:31:36;102249.98;;;-1.15;81.24
35848;BME280;22332;51.954;20.118;2022-12-18T10:34:43;102249.85;;;-1.07;81.00
35848;BME280;22332;51.954;20.118;2022-12-18T10:38:04;102250.07;;;-1.01;81.07
35848;BME280;22332;51.954;20.118;2022-12-18T10:41:25;102243.72;;;-0.97;80.75
35848;BME280;22332;51.954;20.118;2022-12-18T10:44:32;102239.05;;;-0.92;80.53
35848;BME280;22332;51.954;20.118;2022-12-18T10:47:37;102239.48;;;-0.87;80.52
35848;BME280;22332;51.954;20.118;2022-12-18T10:50:49;102239.17;;;-0.71;80.74
35848;BME280;22332;51.954;20.118;2022-12-18T10:54:01;102240.55;;;-0.62;79.10
35848;BME280;22332;51.954;20.118;2022-12-18T10:57:28;102247.23;;;-0.81;79.11
35848;BME280;22332;51.954;20.118;2022-12-18T11:00:35;102244.52;;;-0.94;77.99
35848;BME280;22332;51.954;20.118;2022-12-18T11:03:42;102242.13;;;-1.15;78.63
35848;BME280;22332;51.954;20.118;2022-12-18T11:07:00;102248.23;;;-1.24;79.09
35848;BME280;22332;51.954;20.118;2022-12-18T11:10:14;102256.11;;;-1.26;79.63
35848;BME280;22332;51.954;20.118;2022-12-18T11:13:23;102264.27;;;-1.13;80.25
35848;BME280;22332;51.954;20.118;2022-12-18T11:16:30;102264.41;;;-1.02;80.04
35848;BME280;22332;51.954;20.118;2022-12-18T11:19:37;102253.78;;;-1.03;79.77
35848;BME280;22332;51.954;20.118;2022-12-18T11:22:46;102250.19;;;-0.98;80.00
35848;BME280;22332;51.954;20.118;2022-12-18T11:26:01;102256.33;;;-0.91;79.86
35848;BME280;22332;51.954;20.118;2022-12-18T11:29:15;102261.23;;;-0.91;79.50
35848;BME280;22332;51.954;20.118;2022-12-18T11:32:33;102265.50;;;-0.95;79.17
35848;BME280;22332;51.954;20.118;2022-12-18T11:35:44;102263.21;;;-1.03;79.26
35848;BME280;22332;51.954;20.118;2022-12-18T11:38:55;102270.27;;;-1.06;79.70
35848;BME280;22332;51.954;20.118;2022-12-18T11:42:08;102273.23;;;-1.07;79.42
35848;BME280;22332;51.954;20.118;2022-12-18T11:45:26;102274.70;;;-1.10;79.45
35848;BME280;22332;51.954;20.118;2022-12-18T11:48:36;102273.58;;;-1.15;79.18
35848;BME280;22332;51.954;20.118;2022-12-18T11:51:47;102268.72;;;-1.18;79.38
35848;BME280;22332;51.954;20.118;2022-12-18T11:54:58;102259.14;;;-1.20;79.68
35848;BME280;22332;51.954;20.118;2022-12-18T11:58:11;102253.34;;;-1.17;79.40
35848;BME280;22332;51.954;20.118;2022-12-18T12:01:38;102249.55;;;-1.20;79.18
35848;BME280;22332;51.954;20.118;2022-12-18T12:05:00;102256.64;;;-1.26;79.43
35848;BME280;22332;51.954;20.118;2022-12-18T12:08:14;102252.80;;;-1.26;79.34
35848;BME280;22332;51.954;20.118;2022-12-18T12:11:28;102260.25;;;-1.22;79.24
35848;BME280;22332;51.954;20.118;2022-12-18T12:14:46;102272.35;;;-1.15;79.43
35848;BME280;22332;51.954;20.118;2022-12-18T12:17:55;102290.17;;;-1.06;79.36
35848;BME280;22332;51.954;20.118;2022-12-18T12:21:09;102291.45;;;-1.00;79.04
35848;BME280;22332;51.954;20.118;2022-12-18T12:24:28;102292.13;;;-0.99;79.06
35848;BME280;22332;51.954;20.118;2022-12-18T12:27:43;102298.90;;;-0.96;78.99
35848;BME280;22332;51.954;20.118;2022-12-18T12:31:01;102299.96;;;-0.97;78.84
35848;BME280;22332;51.954;20.118;2022-12-18T12:34:18;102298.16;;;-1.04;78.70
35848;BME280;22332;51.954;20.118;2022-12-18T12:37:29;102309.92;;;-1.07;78.69
35848;BME280;22332;51.954;20.118;2022-12-18T12:40:41;102315.09;;;-1.13;78.61
35848;BME280;22332;51.954;20.118;2022-12-18T12:43:49;102313.30;;;-1.21;78.57
35848;BME280;22332;51.954;20.118;2022-12-18T12:46:58;102306.39;;;-1.25;78.69
35848;BME280;22332;51.954;20.118;2022-12-18T12:50:12;102306.05;;;-1.25;78.60
35848;BME280;22332;51.954;20.118;2022-12-18T12:53:25;102312.90;;;-1.27;78.58
35848;BME280;22332;51.954;20.118;2022-12-18T12:56:39;102322.39;;;-1.31;78.57
35848;BME280;22332;51.954;20.118;2022-12-18T12:59:52;102336.96;;;-1.36;78.46
35848;BME280;22332;51.954;20.118;2022-12-18T13:03:08;102337.70;;;-1.38;78.42
35848;BME280;22332;51.954;20.118;2022-12-18T13:06:27;102335.50;;;-1.43;78.10
35848;BME280;22332;51.954;20.118;2022-12-18T13:13:49;102341.21;;;-1.61;78.01
35848;BME280;22332;51.954;20.118;2022-12-18T13:20:36;102348.24;;;-2.01;78.14
35848;BME280;22332;51.954;20.118;2022-12-18T13:23:42;102350.75;;;-2.07;78.22
35848;BME280;22332;51.954;20.118;2022-12-18T13:26:48;102356.81;;;-2.04;78.58
35848;BME280;22332;51.954;20.118;2022-12-18T13:29:53;102358.71;;;-2.02;78.61
35848;BME280;22332;51.954;20.118;2022-12-18T13:36:50;102352.19;;;-1.85;78.60
35848;BME280;22332;51.954;20.118;2022-12-18T13:39:56;102342.81;;;-1.75;78.07
35848;BME280;22332;51.954;20.118;2022-12-18T13:43:04;102339.66;;;-1.74;78.39
35848;BME280;22332;51.954;20.118;2022-12-18T13:46:24;102343.45;;;-1.71;77.93
35848;BME280;22332;51.954;20.118;2022-12-18T13:49:37;102344.23;;;-1.77;77.24
35848;BME280;22332;51.954;20.118;2022-12-18T13:52:41;102349.64;;;-1.90;78.02
35848;BME280;22332;51.954;20.118;2022-12-18T13:55:48;102356.40;;;-1.86;78.14
35848;BME280;22332;51.954;20.118;2022-12-18T13:59:13;102359.73;;;-1.87;78.09
35848;BME280;22332;51.954;20.118;2022-12-18T14:02:23;102362.60;;;-1.93;77.81
35848;BME280;22332;51.954;20.118;2022-12-18T14:05:32;102369.34;;;-2.01;77.62
35848;BME280;22332;51.954;20.118;2022-12-18T14:08:42;102370.10;;;-2.06;77.97
35848;BME280;22332;51.954;20.118;2022-12-18T14:11:51;102375.77;;;-2.12;77.88
35848;BME280;22332;51.954;20.118;2022-12-18T14:15:23;102386.28;;;-2.17;78.14
35848;BME280;22332;51.954;20.118;2022-12-18T14:18:38;102390.02;;;-2.23;77.88
35848;BME280;22332;51.954;20.118;2022-12-18T14:21:47;102390.44;;;-2.29;77.70
35848;BME280;22332;51.954;20.118;2022-12-18T14:25:10;102392.61;;;-2.36;77.95
35848;BME280;22332;51.954;20.118;2022-12-18T14:28:19;102398.09;;;-2.43;77.88
35848;BME280;22332;51.954;20.118;2022-12-18T14:31:28;102403.19;;;-2.47;77.85
35848;BME280;22332;51.954;20.118;2022-12-18T14:34:34;102402.55;;;-2.52;77.86
35848;BME280;22332;51.954;20.118;2022-12-18T14:37:39;102404.52;;;-2.57;77.43
35848;BME280;22332;51.954;20.118;2022-12-18T14:40:45;102406.01;;;-2.67;77.75
35848;BME280;22332;51.954;20.118;2022-12-18T14:43:51;102403.66;;;-2.76;77.93
35848;BME280;22332;51.954;20.118;2022-12-18T14:46:58;102397.92;;;-2.78;77.72
35848;BME280;22332;51.954;20.118;2022-12-18T14:50:04;102396.92;;;-2.83;77.65
35848;BME280;22332;51.954;20.118;2022-12-18T14:53:26;102400.93;;;-2.82;77.63
35848;BME280;22332;51.954;20.118;2022-12-18T14:56:35;102401.55;;;-2.74;77.75
35848;BME280;22332;51.954;20.118;2022-12-18T14:59:41;102395.23;;;-2.68;77.68
35848;BME280;22332;51.954;20.118;2022-12-18T15:02:49;102394.98;;;-2.62;77.59
35848;BME280;22332;51.954;20.118;2022-12-18T15:05:56;102400.31;;;-2.56;77.55
35848;BME280;22332;51.954;20.118;2022-12-18T15:09:25;102401.52;;;-2.56;77.52
35848;BME280;22332;51.954;20.118;2022-12-18T15:12:35;102406.59;;;-2.55;77.62
35848;BME280;22332;51.954;20.118;2022-12-18T15:15:49;102410.44;;;-2.57;77.43
35848;BME280;22332;51.954;20.118;2022-12-18T15:18:54;102411.89;;;-2.62;77.51
35848;BME280;22332;51.954;20.118;2022-12-18T15:21:59;102413.86;;;-2.68;77.30
35848;BME280;22332;51.954;20.118;2022-12-18T15:25:24;102419.15;;;-2.76;77.26
35848;BME280;22332;51.954;20.118;2022-12-18T15:28:34;102423.23;;;-2.82;77.38
35848;BME280;22332;51.954;20.118;2022-12-18T15:31:41;102425.86;;;-2.86;77.62
35848;BME280;22332;51.954;20.118;2022-12-18T15:34:46;102423.81;;;-2.89;77.34
35848;BME280;22332;51.954;20.118;2022-12-18T15:37:52;102419.84;;;-2.94;77.32
35848;BME280;22332;51.954;20.118;2022-12-18T15:40:58;102424.23;;;-2.98;77.47
35848;BME280;22332;51.954;20.118;2022-12-18T15:44:22;102424.44;;;-3.02;77.32
35848;BME280;22332;51.954;20.118;2022-12-18T15:47:28;102427.45;;;-3.09;77.46
35848;BME280;22332;51.954;20.118;2022-12-18T15:50:34;102433.95;;;-3.18;77.44
35848;BME280;22332;51.954;20.118;2022-12-18T15:53:39;102440.60;;;-3.22;77.46
35848;BME280;22332;51.954;20.118;2022-12-18T15:56:44;102439.78;;;-3.28;77.03
35848;BME280;22332;51.954;20.118;2022-12-18T16:00:13;102434.09;;;-3.36;77.34
35848;BME280;22332;51.954;20.118;2022-12-18T16:03:19;102431.69;;;-3.39;77.26
35848;BME280;22332;51.954;20.118;2022-12-18T16:06:24;102438.48;;;-3.42;77.21
35848;BME280;22332;51.954;20.118;2022-12-18T16:09:30;102447.73;;;-3.45;77.03
35848;BME280;22332;51.954;20.118;2022-12-18T16:12:35;102455.05;;;-3.49;77.28
35848;BME280;22332;51.954;20.118;2022-12-18T16:15:41;102459.41;;;-3.52;77.02
35848;BME280;22332;51.954;20.118;2022-12-18T16:18:46;102454.71;;;-3.50;77.18
35848;BME280;22332;51.954;20.118;2022-12-18T16:21:52;102450.15;;;-3.44;77.04
35848;BME280;22332;51.954;20.118;2022-12-18T16:24:59;102441.07;;;-3.38;77.04
35848;BME280;22332;51.954;20.118;2022-12-18T16:28:05;102439.66;;;-3.36;76.72